Time;durP1;ratioP1;P1;durP2;ratioP2;P2;SDS_P1;SDS_P2;PMS_P1;PMS_P2;Temp;Humidity;BMP_temperature;BMP_pressure;BME280_temperature;BME280_humidity;BME280_pressure;Samples;Min_cycle;Max_cycle;Signal;HPM_P1;HPM_P2
2022/11/30 00:01:07;;;;;;;75.67;37.90;;;2.80;99.90;;;;;;5015890;28;20089;-84
2022/11/30 00:03:32;;;;;;;68.73;35.90;;;2.80;99.90;;;;;;5016495;28;20034;-83
2022/11/30 00:06:03;;;;;;;72.53;38.47;;;2.80;99.90;;;;;;4998870;28;20362;-84
2022/11/30 00:08:29;;;;;;;70.10;36.47;;;2.80;99.90;;;;;;5016385;28;20026;-83
2022/11/30 00:10:54;;;;;;;73.87;38.60;;;2.80;99.90;;;;;;5016242;28;20100;-83
2022/11/30 00:13:20;;;;;;;74.33;37.40;;;2.80;99.90;;;;;;5016244;28;20156;-83
2022/11/30 00:15:45;;;;;;;78.13;39.90;;;2.80;99.90;;;;;;5015957;28;20026;-83
2022/11/30 00:18:11;;;;;;;80.63;39.13;;;2.80;99.90;;;;;;5015726;28;20033;-83
2022/11/30 00:20:37;;;;;;;72.97;37.27;;;2.80;99.90;;;;;;5015558;28;20029;-83
2022/11/30 00:23:02;;;;;;;74.27;37.47;;;2.80;99.90;;;;;;5015725;28;20475;-83
2022/11/30 00:25:28;;;;;;;73.40;36.67;;;2.80;99.90;;;;;;5015789;28;20487;-84
2022/11/30 00:27:53;;;;;;;68.23;36.17;;;2.80;99.90;;;;;;5016080;28;20030;-84
2022/11/30 00:30:19;;;;;;;56.23;30.97;;;2.80;99.90;;;;;;5015627;28;20034;-84
2022/11/30 00:32:45;;;;;;;50.60;28.07;;;2.80;99.90;;;;;;5015657;28;20026;-84
2022/11/30 00:35:10;;;;;;;49.33;25.80;;;2.70;99.90;;;;;;5015292;28;20033;-83
2022/11/30 00:37:36;;;;;;;45.53;25.63;;;2.70;99.90;;;;;;5015608;28;20026;-84
2022/11/30 00:40:02;;;;;;;52.33;28.13;;;2.70;99.90;;;;;;5014005;28;20034;-84
2022/11/30 00:42:27;;;;;;;54.90;26.93;;;2.70;99.90;;;;;;5013727;28;20044;-84
2022/11/30 00:44:53;;;;;;;49.07;25.30;;;2.70;99.90;;;;;;5013876;28;20060;-84
2022/11/30 00:47:18;;;;;;;51.20;26.93;;;2.70;99.90;;;;;;5013722;28;20022;-84
2022/11/30 00:49:44;;;;;;;49.67;26.07;;;2.70;99.90;;;;;;5013820;28;20026;-84
2022/11/30 00:52:09;;;;;;;52.77;26.00;;;2.70;99.90;;;;;;5013642;28;20038;-84
2022/11/30 00:54:35;;;;;;;44.37;24.83;;;2.70;99.90;;;;;;5013869;28;20033;-84
2022/11/30 00:57:00;;;;;;;54.03;25.63;;;2.70;99.90;;;;;;5013963;28;20033;-84
2022/11/30 00:59:26;;;;;;;47.53;23.80;;;2.70;99.90;;;;;;5001331;28;20093;-84
2022/11/30 01:01:53;;;;;;;46.13;24.67;;;2.60;99.90;;;;;;4976400;28;20029;-84
2022/11/30 01:04:19;;;;;;;47.60;24.30;;;2.60;99.90;;;;;;4993445;28;20088;-85
2022/11/30 01:06:45;;;;;;;46.00;23.10;;;2.60;99.90;;;;;;4993576;28;20022;-84
2022/11/30 01:09:10;;;;;;;41.13;22.07;;;2.60;99.90;;;;;;4994169;28;20503;-84
2022/11/30 01:11:36;;;;;;;45.53;23.43;;;2.60;99.90;;;;;;4992732;28;20101;-84
2022/11/30 01:14:02;;;;;;;47.93;23.00;;;2.60;99.90;;;;;;4992816;28;20031;-84
2022/11/30 01:16:31;;;;;;;44.27;22.37;;;2.50;99.90;;;;;;4992651;28;20038;-84
2022/11/30 01:18:56;;;;;;;40.13;20.57;;;2.60;99.90;;;;;;4993075;28;20112;-84
2022/11/30 01:21:24;;;;;;;38.53;20.80;;;2.50;99.90;;;;;;4993082;28;20062;-84
2022/11/30 01:23:51;;;;;;;43.40;22.60;;;2.50;99.90;;;;;;4992696;28;20077;-84
2022/11/30 01:26:17;;;;;;;41.77;21.40;;;2.60;99.90;;;;;;4992987;28;20069;-84
2022/11/30 01:28:43;;;;;;;42.10;22.10;;;2.50;99.90;;;;;;4975472;28;20036;-84
2022/11/30 01:31:12;;;;;;;40.50;21.73;;;2.50;99.90;;;;;;4992803;28;20193;-84
2022/11/30 01:33:38;;;;;;;41.17;21.20;;;2.60;99.90;;;;;;4993524;28;20046;-84
2022/11/30 01:36:08;;;;;;;37.23;20.33;;;2.60;99.90;;;;;;4994311;28;20026;-84
2022/11/30 01:38:39;;;;;;;40.80;20.97;;;2.60;99.90;;;;;;4994254;28;20026;-84
2022/11/30 01:41:06;;;;;;;45.07;22.47;;;2.60;99.90;;;;;;4994354;28;20081;-85
2022/11/30 01:43:53;;;;;;;43.87;23.73;;;2.60;99.90;;;;;;4994206;28;20037;-85
2022/11/30 01:46:37;;;;;;;41.83;21.33;;;2.60;99.90;;;;;;4994439;28;20182;-84
2022/11/30 01:49:12;;;;;;;43.93;22.87;;;2.60;99.90;;;;;;4994177;28;20150;-85
2022/11/30 01:51:48;;;;;;;45.63;25.00;;;2.60;99.90;;;;;;4994271;28;20120;-84
2022/11/30 01:54:20;;;;;;;46.33;24.67;;;2.60;99.90;;;;;;4993861;28;20019;-84
2022/11/30 01:56:54;;;;;;;48.60;24.67;;;2.70;99.90;;;;;;4993041;28;20068;-85
2022/11/30 01:59:22;;;;;;;49.08;26.17;;;2.70;99.90;;;;;;4992861;28;20029;-85
2022/11/30 02:01:48;;;;;;;47.90;24.53;;;2.60;99.90;;;;;;4993277;28;20034;-85
2022/11/30 02:04:25;;;;;;;45.93;24.53;;;2.60;99.90;;;;;;4992526;28;20530;-84
2022/11/30 02:06:51;;;;;;;47.93;26.23;;;2.60;99.90;;;;;;4992780;28;20029;-84
2022/11/30 02:09:19;;;;;;;49.47;26.03;;;2.60;99.90;;;;;;4992812;28;20030;-86
2022/11/30 02:11:45;;;;;;;45.97;25.63;;;2.70;99.90;;;;;;4993230;28;20030;-83
2022/11/30 02:14:23;;;;;;;50.00;26.83;;;2.70;99.90;;;;;;4994887;28;20032;-83
2022/11/30 02:17:00;;;;;;;50.60;26.67;;;2.60;99.90;;;;;;4994716;28;20033;-83
2022/11/30 02:19:47;;;;;;;50.90;27.00;;;2.60;99.90;;;;;;4994544;28;20117;-83
2022/11/30 02:22:39;;;;;;;50.93;26.17;;;2.60;99.90;;;;;;4993887;28;20114;-83
2022/11/30 02:25:39;;;;;;;51.30;26.37;;;2.60;99.90;;;;;;4994727;28;20026;-83
2022/11/30 02:28:42;;;;;;;58.77;28.30;;;2.70;99.90;;;;;;4994532;28;20019;-84
2022/11/30 02:31:13;;;;;;;47.90;26.57;;;2.60;99.90;;;;;;4994661;28;20097;-83
2022/11/30 02:33:40;;;;;;;51.77;26.93;;;2.70;99.90;;;;;;4994553;28;20375;-83
2022/11/30 02:36:08;;;;;;;49.23;26.43;;;2.70;99.90;;;;;;4976672;28;20026;-83
2022/11/30 02:38:34;;;;;;;52.33;27.37;;;2.70;99.90;;;;;;4994537;28;20126;-84
2022/11/30 02:41:01;;;;;;;54.90;28.87;;;2.60;99.90;;;;;;4994409;28;20097;-83
2022/11/30 02:43:28;;;;;;;52.43;28.43;;;2.60;99.90;;;;;;4994220;28;20057;-83
2022/11/30 02:46:00;;;;;;;52.13;26.97;;;2.70;99.90;;;;;;4994626;28;20018;-83
2022/11/30 02:48:51;;;;;;;55.23;28.13;;;2.70;99.90;;;;;;4994128;28;20059;-83
2022/11/30 02:51:21;;;;;;;52.87;27.20;;;2.70;99.90;;;;;;4994510;28;20231;-83
2022/11/30 02:53:47;;;;;;;53.43;28.00;;;2.70;99.90;;;;;;4994303;28;20033;-83
2022/11/30 02:56:13;;;;;;;53.00;29.57;;;2.60;99.90;;;;;;4994674;28;20105;-83
2022/11/30 02:58:39;;;;;;;53.43;27.77;;;2.70;99.90;;;;;;4994165;28;20030;-83
2022/11/30 03:01:05;;;;;;;50.27;28.00;;;2.70;99.90;;;;;;4994218;28;20085;-84
2022/11/30 03:03:30;;;;;;;57.80;29.73;;;2.60;99.90;;;;;;4994118;28;20468;-83
2022/11/30 03:05:56;;;;;;;54.87;28.50;;;2.60;99.90;;;;;;4993758;28;20463;-83
2022/11/30 03:08:21;;;;;;;54.90;29.60;;;2.60;99.90;;;;;;4994213;28;20388;-83
2022/11/30 03:10:47;;;;;;;56.70;29.77;;;2.60;99.90;;;;;;4994176;28;20030;-83
2022/11/30 03:13:13;;;;;;;55.77;29.83;;;2.60;99.90;;;;;;4994072;28;20085;-83
2022/11/30 03:15:38;;;;;;;54.37;29.57;;;2.60;99.90;;;;;;4993847;28;20023;-83
2022/11/30 03:18:05;;;;;;;52.93;29.00;;;2.60;99.90;;;;;;4993720;28;20026;-83
2022/11/30 03:20:30;;;;;;;60.27;30.63;;;2.60;99.90;;;;;;4993592;28;20073;-83
2022/11/30 03:23:00;;;;;;;55.90;28.43;;;2.60;99.90;;;;;;4993580;28;20113;-83
2022/11/30 03:25:26;;;;;;;57.23;30.17;;;2.50;99.90;;;;;;4993807;28;20097;-83
2022/11/30 03:27:51;;;;;;;56.50;29.00;;;2.50;99.90;;;;;;4993592;28;20026;-83
2022/11/30 03:30:17;;;;;;;55.60;28.03;;;2.60;99.90;;;;;;4999850;28;20053;-84
2022/11/30 03:32:43;;;;;;;55.00;29.63;;;2.60;99.90;;;;;;5011246;28;20030;-84
2022/11/30 03:35:08;;;;;;;56.70;30.37;;;2.60;99.90;;;;;;5014306;28;20520;-84
2022/11/30 03:37:34;;;;;;;56.33;29.60;;;2.60;99.90;;;;;;5014666;28;20104;-84
2022/11/30 03:39:59;;;;;;;60.03;31.57;;;2.60;99.90;;;;;;5015075;28;20040;-84
2022/11/30 03:42:25;;;;;;;59.43;30.97;;;2.60;99.90;;;;;;5015091;28;20077;-84
2022/11/30 03:44:50;;;;;;;60.70;30.50;;;2.60;99.90;;;;;;5014933;28;20053;-84
2022/11/30 03:47:16;;;;;;;58.60;31.27;;;2.60;99.90;;;;;;5015180;28;20025;-85
2022/11/30 03:49:41;;;;;;;57.80;29.90;;;2.60;99.90;;;;;;5014874;28;20028;-84
2022/11/30 03:52:07;;;;;;;67.07;32.60;;;2.60;99.90;;;;;;5014659;28;20046;-84
2022/11/30 03:54:33;;;;;;;61.73;32.10;;;2.60;99.90;;;;;;5014904;28;20018;-84
2022/11/30 03:56:58;;;;;;;68.47;33.87;;;2.60;99.90;;;;;;5014995;28;20061;-84
2022/11/30 03:59:24;;;;;;;66.43;33.57;;;2.60;99.90;;;;;;4997293;28;20025;-84
2022/11/30 04:01:49;;;;;;;69.50;34.17;;;2.60;99.90;;;;;;4997070;28;20026;-84
2022/11/30 04:04:15;;;;;;;73.50;34.43;;;2.60;99.90;;;;;;5014552;28;20088;-84
2022/11/30 04:06:40;;;;;;;66.63;34.47;;;2.50;99.90;;;;;;5014948;28;20057;-84
2022/11/30 04:09:06;;;;;;;65.40;33.23;;;2.50;99.90;;;;;;5014662;28;20025;-84
2022/11/30 04:11:32;;;;;;;58.03;30.70;;;2.50;99.90;;;;;;5014510;28;20030;-84
2022/11/30 04:13:57;;;;;;;58.27;29.77;;;2.50;99.90;;;;;;5014602;28;20037;-85
2022/11/30 04:16:23;;;;;;;64.53;31.83;;;2.50;99.90;;;;;;5014547;28;20157;-85
2022/11/30 04:18:48;;;;;;;55.87;28.90;;;2.50;99.90;;;;;;5014462;28;20502;-85
2022/11/30 04:21:14;;;;;;;49.80;27.67;;;2.50;99.90;;;;;;5014349;28;20037;-84
2022/11/30 04:23:40;;;;;;;49.10;25.60;;;2.50;99.90;;;;;;5014084;28;20493;-84
2022/11/30 04:26:09;;;;;;;50.93;26.33;;;2.50;99.90;;;;;;5001670;28;20025;-84
2022/11/30 04:28:35;;;;;;;49.27;26.77;;;2.40;99.90;;;;;;4994904;28;20745;-85
2022/11/30 04:31:01;;;;;;;49.00;24.80;;;2.50;99.90;;;;;;4994749;28;20047;-85
2022/11/30 04:33:27;;;;;;;47.17;25.80;;;2.40;99.90;;;;;;4994612;28;20030;-84
2022/11/30 04:35:55;;;;;;;49.43;25.10;;;2.40;99.90;;;;;;4994458;28;20026;-84
2022/11/30 04:38:22;;;;;;;53.50;29.03;;;2.40;99.90;;;;;;4994705;28;20035;-85
2022/11/30 04:40:48;;;;;;;52.43;26.87;;;2.30;99.90;;;;;;4994566;28;20026;-85
2022/11/30 04:43:13;;;;;;;50.47;25.97;;;2.40;99.90;;;;;;4994490;28;20089;-84
2022/11/30 04:45:39;;;;;;;53.00;26.40;;;2.40;99.90;;;;;;4993787;28;20026;-84
2022/11/30 04:48:06;;;;;;;49.40;25.33;;;2.30;99.90;;;;;;4994526;28;20050;-84
2022/11/30 04:50:31;;;;;;;47.67;24.90;;;2.30;99.90;;;;;;4994616;28;20353;-84
2022/11/30 04:52:57;;;;;;;51.57;25.90;;;2.30;99.90;;;;;;4994278;28;20096;-85
2022/11/30 04:55:23;;;;;;;53.23;25.90;;;2.30;99.90;;;;;;4994358;28;20030;-84
2022/11/30 04:57:49;;;;;;;46.70;25.50;;;2.20;99.90;;;;;;4994383;28;20069;-84
2022/11/30 05:00:17;;;;;;;46.67;24.90;;;2.20;99.90;;;;;;4976241;28;20062;-84
2022/11/30 05:02:43;;;;;;;48.63;26.53;;;2.20;99.90;;;;;;4993843;28;20042;-84
2022/11/30 05:05:09;;;;;;;46.27;25.67;;;2.20;99.90;;;;;;4994043;28;20375;-82
2022/11/30 05:07:35;;;;;;;48.20;25.67;;;2.20;99.90;;;;;;4993584;28;20033;-83
2022/11/30 05:10:01;;;;;;;44.63;24.83;;;2.20;99.90;;;;;;4994684;28;20034;-82
2022/11/30 05:12:27;;;;;;;47.40;25.17;;;2.30;99.90;;;;;;4993547;28;20542;-81
2022/11/30 05:14:52;;;;;;;46.47;24.50;;;2.20;99.90;;;;;;4993599;28;20026;-82
2022/11/30 05:17:18;;;;;;;46.17;25.37;;;2.20;99.90;;;;;;4993350;28;20045;-80
2022/11/30 05:19:43;;;;;;;44.20;25.27;;;2.20;99.90;;;;;;4993272;28;20030;-78
2022/11/30 05:22:09;;;;;;;52.80;27.63;;;2.30;99.90;;;;;;4992796;28;20034;-77
2022/11/30 05:24:34;;;;;;;41.90;22.97;;;2.30;99.90;;;;;;4992909;28;20027;-78
2022/11/30 05:27:00;;;;;;;43.47;25.67;;;2.30;99.90;;;;;;4992758;28;20054;-78
2022/11/30 05:29:26;;;;;;;40.03;20.93;;;2.30;99.90;;;;;;4975086;28;20488;-78
2022/11/30 05:31:51;;;;;;;38.33;21.57;;;2.30;99.90;;;;;;4992542;28;20079;-78
2022/11/30 05:34:17;;;;;;;45.83;22.13;;;2.30;99.90;;;;;;4992631;28;20031;-78
2022/11/30 05:36:42;;;;;;;105.20;58.43;;;2.30;99.90;;;;;;4992603;28;20134;-78
2022/11/30 05:39:08;;;;;;;40.93;23.87;;;2.30;99.90;;;;;;4974970;28;20030;-78
2022/11/30 05:41:34;;;;;;;40.40;22.20;;;2.20;99.90;;;;;;4992263;28;20034;-78
2022/11/30 05:44:00;;;;;;;36.07;20.20;;;2.20;99.90;;;;;;4992570;28;20026;-78
2022/11/30 05:46:25;;;;;;;35.63;19.40;;;2.20;99.90;;;;;;4992727;28;20108;-78
2022/11/30 05:48:51;;;;;;;33.77;20.20;;;2.20;99.90;;;;;;4992627;28;20030;-78
2022/11/30 05:51:19;;;;;;;37.60;21.20;;;2.20;99.90;;;;;;4992500;28;20098;-78
2022/11/30 05:53:45;;;;;;;43.40;24.90;;;2.30;99.90;;;;;;4992600;28;20061;-78
2022/11/30 05:56:16;;;;;;;80.23;43.30;;;2.30;99.90;;;;;;4992435;28;20049;-78
2022/11/30 05:58:43;;;;;;;40.07;24.70;;;2.30;99.90;;;;;;4974095;28;20066;-78
2022/11/30 06:01:20;;;;;;;62.83;37.57;;;2.30;99.90;;;;;;4992474;28;20105;-78
2022/11/30 06:03:46;;;;;;;37.10;21.03;;;2.30;99.90;;;;;;4988436;28;20038;-78
2022/11/30 06:06:12;;;;;;;85.37;48.03;;;2.30;99.90;;;;;;4979540;28;20034;-78
2022/11/30 06:08:38;;;;;;;39.33;23.57;;;2.30;99.90;;;;;;4987316;28;20032;-78
2022/11/30 06:11:03;;;;;;;37.23;25.70;;;2.30;99.90;;;;;;4987838;28;20031;-78
2022/11/30 06:13:31;;;;;;;34.40;20.73;;;2.30;99.90;;;;;;4986326;28;20098;-77
2022/11/30 06:16:04;;;;;;;33.37;20.00;;;2.30;99.90;;;;;;4980361;28;20026;-78
2022/11/30 06:18:37;;;;;;;44.97;28.00;;;2.40;99.90;;;;;;5108376;27;21292;-79
2022/11/30 06:21:06;;;;;;;38.77;20.77;;;2.30;99.90;;;;;;5107694;28;20024;-79
2022/11/30 06:23:33;;;;;;;36.43;22.83;;;2.40;99.90;;;;;;5106944;28;20016;-80
2022/11/30 06:26:05;;;;;;;38.40;22.20;;;2.30;99.90;;;;;;5108539;28;20089;-81
2022/11/30 06:28:31;;;;;;;35.87;20.67;;;2.30;99.90;;;;;;5107813;28;20034;-80
2022/11/30 06:31:01;;;;;;;33.53;19.93;;;2.40;99.90;;;;;;5107965;28;20020;-80
2022/11/30 06:33:27;;;;;;;37.27;19.77;;;2.40;99.90;;;;;;5108151;28;20070;-80
2022/11/30 06:35:53;;;;;;;38.03;23.20;;;2.30;99.90;;;;;;5108463;28;20480;-80
2022/11/30 06:38:19;;;;;;;34.87;19.87;;;2.40;99.90;;;;;;5107755;28;20063;-80
2022/11/30 06:40:45;;;;;;;35.87;20.13;;;2.40;99.90;;;;;;5109372;28;20070;-80
2022/11/30 06:43:11;;;;;;;33.73;19.93;;;2.40;99.90;;;;;;5107802;28;20484;-80
2022/11/30 06:45:37;;;;;;;35.47;20.10;;;2.40;99.90;;;;;;5107640;28;20027;-80
2022/11/30 06:48:02;;;;;;;36.63;20.40;;;2.40;99.90;;;;;;5107016;28;20028;-80
2022/11/30 06:50:28;;;;;;;38.87;21.07;;;2.40;99.90;;;;;;5107212;28;20028;-80
2022/11/30 06:52:55;;;;;;;33.67;20.17;;;2.40;99.90;;;;;;5107244;28;20372;-81
2022/11/30 06:55:22;;;;;;;34.13;19.33;;;2.40;99.90;;;;;;5107690;28;20476;-82
2022/11/30 06:57:48;;;;;;;38.87;20.30;;;2.40;99.90;;;;;;5107240;28;20026;-82
2022/11/30 07:00:14;;;;;;;34.83;20.10;;;2.50;99.90;;;;;;5107798;28;20094;-82
2022/11/30 07:02:39;;;;;;;41.17;23.07;;;2.50;99.90;;;;;;5106527;28;20388;-82
2022/11/30 07:05:05;;;;;;;33.50;20.37;;;2.50;99.90;;;;;;5107698;28;20073;-82
2022/11/30 07:07:31;;;;;;;40.07;20.13;;;2.50;99.90;;;;;;5107686;28;20157;-82
2022/11/30 07:09:56;;;;;;;32.80;19.53;;;2.50;99.90;;;;;;5107834;28;20032;-82
2022/11/30 07:12:23;;;;;;;40.77;20.53;;;2.60;99.90;;;;;;5107479;28;20036;-82
2022/11/30 07:14:51;;;;;;;36.03;20.53;;;2.60;99.90;;;;;;5107726;28;20028;-82
2022/11/30 07:17:17;;;;;;;35.80;20.33;;;2.60;99.90;;;;;;5119146;28;20096;-80
2022/11/30 07:19:43;;;;;;;33.27;19.27;;;2.60;99.90;;;;;;5128873;28;20015;-80
2022/11/30 07:22:08;;;;;;;33.07;18.40;;;2.60;99.90;;;;;;5128862;28;20486;-80
2022/11/30 07:27:18;;;;;;;33.23;19.33;;;2.70;99.90;;;;;;5109548;28;20035;-81
2022/11/30 07:29:44;;;;;;;34.70;18.30;;;2.70;99.90;;;;;;5097361;28;20024;-81
2022/11/30 07:32:09;;;;;;;34.77;19.50;;;2.70;99.90;;;;;;5095708;28;20464;-81
2022/11/30 07:34:35;;;;;;;31.77;18.63;;;2.70;99.90;;;;;;5095644;28;20369;-81
2022/11/30 07:37:01;;;;;;;32.33;17.87;;;2.80;99.90;;;;;;5095285;28;20020;-81
2022/11/30 07:39:26;;;;;;;32.87;17.83;;;2.80;99.90;;;;;;5095625;28;20031;-81
2022/11/30 07:41:52;;;;;;;34.47;18.73;;;2.80;99.90;;;;;;5094662;28;20058;-81
2022/11/30 07:44:17;;;;;;;34.80;18.00;;;2.80;99.90;;;;;;5094329;28;20445;-81
2022/11/30 07:46:43;;;;;;;31.67;17.63;;;2.90;99.90;;;;;;5093981;28;20692;-81
2022/11/30 07:49:09;;;;;;;33.47;17.80;;;2.90;99.90;;;;;;5091888;28;20070;-83
2022/11/30 07:51:35;;;;;;;44.17;21.13;;;3.00;99.90;;;;;;5092989;28;20462;-83
2022/11/30 07:54:01;;;;;;;33.27;18.13;;;3.00;99.90;;;;;;5092710;28;20463;-82
2022/11/30 07:56:28;;;;;;;38.33;21.77;;;3.00;99.90;;;;;;5092544;28;20039;-83
2022/11/30 07:58:56;;;;;;;34.83;19.33;;;3.00;99.90;;;;;;5092845;28;20023;-83
2022/11/30 08:01:26;;;;;;;32.83;19.17;;;3.10;99.90;;;;;;5092755;28;20052;-83
2022/11/30 08:03:52;;;;;;;37.10;21.47;;;3.10;99.90;;;;;;5093491;28;20074;-83
2022/11/30 08:06:20;;;;;;;39.13;19.30;;;3.10;99.90;;;;;;5093868;28;20052;-83
2022/11/30 08:08:47;;;;;;;36.10;19.50;;;3.10;99.90;;;;;;5093709;28;20027;-82
2022/11/30 08:11:15;;;;;;;34.50;17.80;;;3.10;99.90;;;;;;5091768;28;20031;-82
2022/11/30 08:13:41;;;;;;;33.10;19.60;;;3.10;99.90;;;;;;5086043;28;20049;-83
2022/11/30 08:16:13;;;;;;;36.23;19.40;;;3.20;99.90;;;;;;5089212;28;20099;-83
2022/11/30 08:18:39;;;;;;;38.37;20.53;;;3.20;99.90;;;;;;5087099;28;20163;-82
2022/11/30 08:21:07;;;;;;;35.50;20.97;;;3.20;99.90;;;;;;5086885;28;20139;-83
2022/11/30 08:23:38;;;;;;;36.00;20.57;;;3.20;99.90;;;;;;5087189;28;20040;-83
2022/11/30 08:26:10;;;;;;;35.13;20.17;;;3.20;99.90;;;;;;5086324;28;20032;-83
2022/11/30 08:28:36;;;;;;;37.90;20.30;;;3.20;99.90;;;;;;5085145;28;20039;-82
2022/11/30 08:31:05;;;;;;;39.30;21.93;;;3.20;99.90;;;;;;5086529;28;20047;-83
2022/11/30 08:33:31;;;;;;;41.30;21.20;;;3.10;99.90;;;;;;5086553;28;20039;-83
2022/11/30 08:36:10;;;;;;;37.83;21.47;;;3.20;99.90;;;;;;5086907;28;20059;-82
2022/11/30 08:38:37;;;;;;;40.10;20.13;;;3.20;99.90;;;;;;5085828;28;20032;-82
2022/11/30 08:41:04;;;;;;;40.43;20.17;;;3.20;99.90;;;;;;5085715;28;20388;-82
2022/11/30 08:43:29;;;;;;;43.23;21.60;;;3.20;99.90;;;;;;5085985;28;20558;-82
2022/11/30 08:45:55;;;;;;;42.27;22.23;;;3.20;99.90;;;;;;5086323;28;20044;-82
2022/11/30 08:48:21;;;;;;;37.80;21.30;;;3.30;99.90;;;;;;5085224;28;20040;-82
2022/11/30 08:50:47;;;;;;;40.03;20.80;;;3.30;99.90;;;;;;5086778;28;20028;-82
2022/11/30 08:53:12;;;;;;;36.20;21.40;;;3.30;99.90;;;;;;5086021;28;20444;-82
2022/11/30 08:55:38;;;;;;;36.90;21.30;;;3.30;99.90;;;;;;5086681;28;20046;-82
2022/11/30 08:58:03;;;;;;;37.70;21.93;;;3.40;99.90;;;;;;5085304;28;20039;-82
2022/11/30 09:00:29;;;;;;;38.20;22.00;;;3.30;99.90;;;;;;5086128;28;20044;-82
2022/11/30 09:02:55;;;;;;;34.23;20.70;;;3.40;99.90;;;;;;5086829;28;20032;-82
2022/11/30 09:05:21;;;;;;;35.23;19.70;;;3.40;99.90;;;;;;5084296;28;20020;-82
2022/11/30 09:07:47;;;;;;;32.80;18.80;;;3.40;99.90;;;;;;5082759;28;20032;-82
2022/11/30 09:10:13;;;;;;;37.40;19.60;;;3.40;99.90;;;;;;5085722;28;20077;-82
2022/11/30 09:12:39;;;;;;;35.20;21.00;;;3.40;99.90;;;;;;5085818;28;20669;-83
2022/11/30 09:15:07;;;;;;;38.73;20.73;;;3.30;99.90;;;;;;5085822;28;20075;-82
2022/11/30 09:17:33;;;;;;;36.27;20.30;;;3.30;99.90;;;;;;5084545;28;20052;-83
2022/11/30 09:19:59;;;;;;;47.83;23.53;;;3.40;99.90;;;;;;5085903;28;20767;-82
2022/11/30 09:22:26;;;;;;;39.63;22.17;;;3.40;99.90;;;;;;5086870;28;20161;-82
2022/11/30 09:24:52;;;;;;;38.47;22.00;;;3.40;99.90;;;;;;5086378;28;20024;-81
2022/11/30 09:27:18;;;;;;;39.57;22.47;;;3.40;99.90;;;;;;5086427;28;20028;-81
2022/11/30 09:29:44;;;;;;;39.20;23.33;;;3.40;99.90;;;;;;5088104;28;20058;-81
2022/11/30 09:32:09;;;;;;;42.13;24.07;;;3.50;99.90;;;;;;5087691;28;20062;-81
2022/11/30 09:34:35;;;;;;;41.27;24.67;;;3.50;99.90;;;;;;5090724;28;20457;-81
2022/11/30 09:37:00;;;;;;;41.80;23.43;;;3.50;99.90;;;;;;5088531;28;20044;-81
2022/11/30 09:39:26;;;;;;;39.27;22.70;;;3.60;99.90;;;;;;5087540;28;20102;-81
2022/11/30 09:42:23;;;;;;;38.73;22.40;;;3.50;99.90;;;;;;5087377;28;20031;-81
2022/11/30 09:45:01;;;;;;;35.93;21.03;;;3.60;99.90;;;;;;5084194;28;20097;-81
2022/11/30 09:47:35;;;;;;;35.97;20.37;;;3.60;99.90;;;;;;5086113;28;20485;-81
2022/11/30 09:50:13;;;;;;;36.27;20.97;;;3.60;99.90;;;;;;5087756;28;20425;-80
2022/11/30 09:52:45;;;;;;;34.37;20.03;;;3.60;99.90;;;;;;5088125;28;20040;-81
2022/11/30 09:55:15;;;;;;;34.77;19.73;;;3.60;99.90;;;;;;5085774;28;20032;-83
2022/11/30 09:57:55;;;;;;;32.87;18.93;;;3.50;99.90;;;;;;5084437;28;20035;-82
2022/11/30 10:00:22;;;;;;;33.93;18.83;;;3.50;99.90;;;;;;5084695;28;20024;-82
2022/11/30 10:02:50;;;;;;;34.13;19.50;;;3.60;99.90;;;;;;5083210;28;20040;-80
2022/11/30 10:05:35;;;;;;;33.30;18.20;;;3.60;99.90;;;;;;5084426;28;20036;-80
2022/11/30 10:08:23;;;;;;;32.23;18.60;;;3.60;99.90;;;;;;5083692;28;20044;-80
2022/11/30 10:11:01;;;;;;;30.17;17.50;;;3.50;99.90;;;;;;5083996;28;20039;-80
2022/11/30 10:13:45;;;;;;;32.43;17.33;;;3.60;99.90;;;;;;5085179;28;20032;-79
2022/11/30 10:16:47;;;;;;;29.67;17.27;;;3.60;99.90;;;;;;5085628;28;20342;-79
2022/11/30 10:19:37;;;;;;;32.90;19.40;;;3.60;99.90;;;;;;5083358;28;20062;-82
2022/11/30 10:22:23;;;;;;;35.60;23.97;;;3.60;99.90;;;;;;5085300;28;20032;-82
2022/11/30 10:25:15;;;;;;;30.87;19.03;;;3.60;99.90;;;;;;5084256;28;20084;-80
2022/11/30 10:27:53;;;;;;;28.33;14.63;;;3.60;99.90;;;;;;5085653;28;20036;-80
2022/11/30 10:30:24;;;;;;;26.03;15.50;;;3.70;99.90;;;;;;5085516;28;20032;-82
2022/11/30 10:32:55;;;;;;;25.50;15.37;;;3.60;99.90;;;;;;5083119;28;20032;-82
2022/11/30 10:35:37;;;;;;;24.80;14.20;;;3.70;99.90;;;;;;5084268;28;20028;-82
2022/11/30 10:38:16;;;;;;;20.67;12.37;;;3.70;99.90;;;;;;5083698;28;20032;-82
2022/11/30 10:41:11;;;;;;;20.50;12.70;;;3.70;99.90;;;;;;5082699;28;20024;-80
2022/11/30 10:43:52;;;;;;;19.55;11.98;;;3.60;99.90;;;;;;5084413;28;20877;-80
2022/11/30 10:46:38;;;;;;;20.17;12.53;;;3.60;99.90;;;;;;5082933;28;20032;-79
2022/11/30 10:49:09;;;;;;;18.58;12.07;;;3.60;99.90;;;;;;5083956;28;20045;-82
2022/11/30 10:51:37;;;;;;;19.63;12.73;;;3.60;99.90;;;;;;5087186;28;20040;-82
2022/11/30 10:54:18;;;;;;;18.67;12.50;;;3.60;99.90;;;;;;5110622;28;20046;-80
2022/11/30 10:56:44;;;;;;;18.60;11.97;;;3.50;99.90;;;;;;5101132;28;20106;-81
2022/11/30 10:59:18;;;;;;;20.40;12.07;;;3.50;99.90;;;;;;5099983;28;20028;-82
2022/11/30 11:01:44;;;;;;;19.33;11.50;;;3.50;99.90;;;;;;5095028;28;20099;-82
2022/11/30 11:04:16;;;;;;;16.37;10.77;;;3.50;99.90;;;;;;5088317;28;20103;-81
2022/11/30 11:06:44;;;;;;;21.23;11.70;;;3.50;99.90;;;;;;5076095;28;20029;-80
2022/11/30 11:09:37;;;;;;;19.50;12.13;;;3.50;99.90;;;;;;5094238;28;20519;-80
2022/11/30 11:12:19;;;;;;;20.00;12.40;;;3.60;99.90;;;;;;5093626;28;20024;-80
2022/11/30 11:14:45;;;;;;;21.67;13.13;;;3.60;99.90;;;;;;5094770;28;20370;-82
2022/11/30 11:17:16;;;;;;;21.93;13.73;;;3.60;99.90;;;;;;5094693;28;20083;-80
2022/11/30 11:19:43;;;;;;;20.97;13.27;;;3.70;99.90;;;;;;5094091;28;20119;-80
2022/11/30 11:22:23;;;;;;;20.57;13.33;;;3.70;99.90;;;;;;5093922;28;20024;-80
2022/11/30 11:24:52;;;;;;;20.00;13.23;;;3.80;99.90;;;;;;5094320;28;20021;-80
2022/11/30 11:27:24;;;;;;;17.93;11.70;;;3.80;99.90;;;;;;5093861;28;20030;-81
2022/11/30 11:30:04;;;;;;;19.00;12.13;;;3.80;99.90;;;;;;5095198;28;20833;-82
2022/11/30 11:32:30;;;;;;;21.43;12.73;;;3.90;99.90;;;;;;5095154;28;20028;-82
2022/11/30 11:34:56;;;;;;;18.17;12.50;;;4.00;99.90;;;;;;5095556;28;20024;-82
2022/11/30 11:37:27;;;;;;;18.97;11.93;;;4.10;99.90;;;;;;5093543;28;20107;-82
2022/11/30 11:40:10;;;;;;;19.43;12.37;;;4.10;99.90;;;;;;5095115;28;20058;-81
2022/11/30 11:42:43;;;;;;;17.20;11.23;;;4.10;99.90;;;;;;5095635;28;20020;-82
2022/11/30 11:45:20;;;;;;;16.33;9.97;;;4.10;99.90;;;;;;5095842;28;20463;-81
2022/11/30 11:47:47;;;;;;;17.73;10.83;;;4.20;99.90;;;;;;5094604;28;20051;-80
2022/11/30 11:50:28;;;;;;;18.03;9.40;;;4.20;99.90;;;;;;5073049;28;20054;-81
2022/11/30 11:53:14;;;;;;;16.67;9.43;;;4.20;99.90;;;;;;5072867;28;20078;-80
2022/11/30 11:55:44;;;;;;;16.33;10.20;;;4.20;99.90;;;;;;5071554;28;20032;-80
2022/11/30 11:58:34;;;;;;;14.83;10.03;;;4.20;99.90;;;;;;5072953;28;20028;-80
2022/11/30 12:01:04;;;;;;;16.80;10.57;;;4.20;99.90;;;;;;5072796;28;20477;-80
2022/11/30 12:04:09;;;;;;;16.10;9.90;;;4.30;99.90;;;;;;5073123;28;20491;-82
2022/11/30 12:06:35;;;;;;;15.13;9.50;;;4.20;99.90;;;;;;5073269;28;20016;-81
2022/11/30 12:09:15;;;;;;;20.63;13.20;;;4.20;99.90;;;;;;5079146;28;20779;-81
2022/11/30 12:11:46;;;;;;;22.83;14.77;;;4.20;99.90;;;;;;5093781;28;20063;-81
2022/11/30 12:14:15;;;;;;;25.73;15.87;;;4.20;99.90;;;;;;5094185;28;20482;-81
2022/11/30 12:17:15;;;;;;;30.90;18.40;;;4.20;99.90;;;;;;5093977;28;20036;-82
2022/11/30 12:19:58;;;;;;;35.73;22.07;;;4.10;99.90;;;;;;5094338;28;20020;-83
2022/11/30 12:22:45;;;;;;;41.13;24.07;;;4.00;99.90;;;;;;5089837;28;20016;-83
2022/11/30 12:25:23;;;;;;;30.10;18.20;;;4.00;99.90;;;;;;5093160;28;20406;-83
2022/11/30 12:28:20;;;;;;;35.27;21.00;;;3.90;99.90;;;;;;5089361;28;20060;-82
2022/11/30 12:30:49;;;;;;;34.23;19.80;;;3.80;99.90;;;;;;5086220;28;20572;-81
2022/11/30 12:33:20;;;;;;;30.70;18.23;;;3.80;99.90;;;;;;5087097;28;20047;-81
2022/11/30 12:36:08;;;;;;;29.97;18.43;;;3.80;99.90;;;;;;5086624;28;20024;-81
2022/11/30 12:38:46;;;;;;;29.50;18.33;;;3.70;99.90;;;;;;5086239;28;20030;-83
2022/11/30 12:41:23;;;;;;;25.77;15.80;;;3.70;99.90;;;;;;5087444;28;21116;-83
2022/11/30 12:44:08;;;;;;;23.83;13.40;;;3.70;99.90;;;;;;5087426;28;20122;-83
2022/11/30 12:46:53;;;;;;;32.63;18.37;;;3.70;99.90;;;;;;5085520;28;20024;-83
2022/11/30 12:49:25;;;;;;;25.73;15.60;;;3.70;99.90;;;;;;5087043;28;20824;-83
2022/11/30 12:52:31;;;;;;;26.93;17.00;;;3.60;99.90;;;;;;5086874;28;20432;-83
2022/11/30 12:55:25;;;;;;;26.00;17.27;;;3.60;99.90;;;;;;5068734;28;20101;-83